This is the latest recevied weather packets stored in our database for station/object OM8AKX-12. If no packets are shown the sender has not sent any weather packets the latest 10 day(s).
| Time | Temp. | Humidity | Pressure | Rain* | Wind** | Luminosity | Snow |
|---|---|---|---|---|---|---|---|
| 1777695888 | 10.56° C | 67% | 1019.7 hPa | - | - | - | - |
| 1777694995 | 8.89° C | 75% | 1019.7 hPa | - | - | - | - |
| 1777694095 | 5.56° C | 95% | 1019.7 hPa | - | - | - | - |
| 1777693195 | 4.44° C | 92% | 1019.8 hPa | - | - | - | - |
| 1777691388 | 5.56° C | 88% | 1019.6 hPa | - | - | - | - |
| 1777690488 | 5.56° C | 91% | 1019.4 hPa | - | - | - | - |
| 1777689589 | 5° C | 94% | 1019.5 hPa | - | - | - | - |
| 1777688694 | 5° C | 92% | 1019.6 hPa | - | - | - | - |
| 1777687787 | 5° C | 92% | 1019.6 hPa | - | - | - | - |
| 1777686889 | 5.56° C | 89% | 1019.6 hPa | - | - | - | - |
| 1777685988 | 5.56° C | 88% | 1019.6 hPa | - | - | - | - |
| 1777685090 | 5.56° C | 86% | 1019.6 hPa | - | - | - | - |
| 1777684190 | 6.11° C | 85% | 1019.6 hPa | - | - | - | - |
| 1777682392 | 7.22° C | 80% | 1019.7 hPa | - | - | - | - |
| 1777681488 | 7.78° C | 77% | 1019.6 hPa | - | - | - | - |
| 1777680592 | 7.78° C | 77% | 1019.6 hPa | - | - | - | - |
| 1777679687 | 7.78° C | 77% | 1019.7 hPa | - | - | - | - |
| 1777678787 | 7.78° C | 77% | 1019.7 hPa | - | - | - | - |
| 1777677889 | 7.78° C | 76% | 1019.7 hPa | - | - | - | - |
| 1777676087 | 7.78° C | 73% | 1019.9 hPa | - | - | - | - |
| 1777675194 | 7.78° C | 73% | 1019.8 hPa | - | - | - | - |
| 1777674291 | 8.33° C | 72% | 1019.8 hPa | - | - | - | - |
| 1777673387 | 7.78° C | 74% | 1019.9 hPa | - | - | - | - |
| 1777672487 | 7.78° C | 74% | 1020 hPa | - | - | - | - |
| 1777671593 | 6.67° C | 76% | 1019.9 hPa | - | - | - | - |
* Rain since midnight (hover to see other rain measurements)
** Current wind speed in m/s (hover to see current wind gust speed)